createdAt,value
2018-05-26T00:00:21.094Z,16.11
2018-05-26T00:01:21.244Z,16.06
2018-05-26T00:02:21.402Z,16.04
2018-05-26T00:03:21.552Z,16.11
2018-05-26T00:04:21.707Z,16.15
2018-05-26T00:05:21.860Z,16.22
2018-05-26T00:06:22.021Z,16.23
2018-05-26T00:07:22.174Z,16.22
2018-05-26T00:08:22.329Z,16.22
2018-05-26T00:09:22.481Z,16.18
2018-05-26T00:10:22.634Z,16.18
2018-05-26T00:11:22.790Z,16.22
2018-05-26T00:12:22.943Z,16.34
2018-05-26T00:13:23.100Z,16.27
2018-05-26T00:14:23.252Z,16.06
2018-05-26T00:15:23.412Z,16.11
2018-05-26T00:16:23.563Z,16.03
2018-05-26T00:17:23.717Z,15.99
2018-05-26T00:18:23.872Z,16.12
2018-05-26T00:19:24.026Z,16.07
2018-05-26T00:20:24.181Z,16.06
2018-05-26T00:21:24.336Z,16.04
2018-05-26T00:22:24.491Z,16.03
2018-05-26T00:23:24.645Z,15.96
2018-05-26T00:24:24.804Z,15.93
2018-05-26T00:25:24.955Z,15.92
2018-05-26T00:26:25.110Z,16.04
2018-05-26T00:27:25.265Z,16.01
2018-05-26T00:28:25.419Z,15.94
2018-05-26T00:29:25.617Z,15.99
2018-05-26T00:30:25.729Z,15.82
2018-05-26T00:31:25.884Z,15.85
2018-05-26T00:32:26.041Z,15.76
2018-05-26T00:33:26.195Z,15.70
2018-05-26T00:34:26.352Z,15.68
2018-05-26T00:35:26.504Z,15.66
2018-05-26T00:36:26.659Z,15.68
2018-05-26T00:37:26.815Z,15.67
2018-05-26T00:38:26.971Z,15.67
2018-05-26T00:39:27.127Z,15.60
2018-05-26T00:40:27.282Z,15.61
2018-05-26T00:41:27.437Z,15.64
2018-05-26T00:42:27.591Z,15.59
2018-05-26T00:43:27.746Z,15.51
2018-05-26T00:44:27.897Z,15.56
2018-05-26T00:45:28.053Z,15.64
2018-05-26T00:46:28.206Z,15.61
2018-05-26T00:47:28.362Z,15.63
2018-05-26T00:48:28.520Z,15.61
2018-05-26T00:49:28.672Z,15.68
2018-05-26T00:50:28.825Z,15.76
2018-05-26T00:51:28.979Z,15.74
2018-05-26T00:52:29.130Z,15.76
2018-05-26T00:53:29.285Z,15.85
2018-05-26T00:54:29.440Z,15.79
2018-05-26T00:55:29.595Z,15.84
2018-05-26T00:56:29.750Z,15.74
2018-05-26T00:57:29.905Z,15.76
2018-05-26T00:58:30.059Z,15.75
2018-05-26T00:59:30.217Z,15.82
2018-05-26T01:00:30.369Z,15.82
2018-05-26T01:01:30.524Z,15.75
2018-05-26T01:02:30.680Z,15.61
2018-05-26T01:03:30.835Z,15.72
2018-05-26T01:04:30.988Z,15.61
2018-05-26T01:05:31.142Z,15.60
2018-05-26T01:06:31.298Z,15.67
2018-05-26T01:07:31.452Z,15.60
2018-05-26T01:08:31.606Z,15.54
2018-05-26T01:09:31.760Z,15.57
2018-05-26T01:10:31.917Z,15.63
2018-05-26T01:11:32.075Z,15.60
2018-05-26T01:12:32.223Z,15.64
2018-05-26T01:13:32.378Z,15.48
2018-05-26T01:14:32.531Z,15.54
2018-05-26T01:15:32.686Z,15.48
2018-05-26T01:16:32.839Z,15.39
2018-05-26T01:17:32.993Z,15.48
2018-05-26T01:18:33.145Z,15.42
2018-05-26T01:19:33.301Z,15.41
2018-05-26T01:20:33.453Z,15.35
2018-05-26T01:21:33.605Z,15.41
2018-05-26T01:22:33.763Z,15.35
2018-05-26T01:23:33.914Z,15.21
2018-05-26T01:24:34.135Z,15.30
2018-05-26T01:25:34.275Z,15.31
2018-05-26T01:26:34.432Z,15.33
2018-05-26T01:27:34.588Z,15.30
2018-05-26T01:28:34.741Z,15.21
2018-05-26T01:29:34.895Z,15.24
2018-05-26T01:30:35.049Z,15.24
2018-05-26T01:31:35.205Z,15.24
2018-05-26T01:32:35.359Z,15.28
2018-05-26T01:33:35.515Z,15.35
2018-05-26T01:34:35.670Z,15.43
2018-05-26T01:35:35.822Z,15.35
2018-05-26T01:36:35.977Z,15.26
2018-05-26T01:37:36.130Z,15.27
2018-05-26T01:38:36.287Z,15.24
2018-05-26T01:39:36.441Z,15.36
2018-05-26T01:40:36.596Z,15.38
2018-05-26T01:41:36.751Z,15.26
2018-05-26T01:42:36.904Z,15.23
2018-05-26T01:43:37.059Z,15.19
2018-05-26T01:44:37.213Z,15.21
2018-05-26T01:45:37.368Z,15.12
2018-05-26T01:46:37.523Z,15.15
2018-05-26T01:47:37.681Z,15.05
2018-05-26T01:48:37.839Z,15.06
2018-05-26T01:49:37.989Z,15.05
2018-05-26T01:50:38.144Z,15.01
2018-05-26T01:51:38.298Z,15.19
2018-05-26T01:52:38.450Z,15.11
2018-05-26T01:53:38.604Z,14.95
2018-05-26T01:54:38.763Z,14.84
2018-05-26T01:55:38.914Z,14.83
2018-05-26T01:56:39.068Z,14.83
2018-05-26T01:57:39.222Z,14.75
2018-05-26T01:58:39.379Z,14.90
2018-05-26T01:59:39.530Z,14.84
2018-05-26T02:00:39.687Z,14.90
2018-05-26T02:01:39.838Z,14.95
2018-05-26T02:02:39.993Z,14.93
2018-05-26T02:03:40.146Z,14.99
2018-05-26T02:04:40.301Z,14.91
2018-05-26T02:05:40.454Z,14.91
2018-05-26T02:06:40.612Z,14.90
2018-05-26T02:07:40.762Z,14.91
2018-05-26T02:08:40.917Z,14.94
2018-05-26T02:09:41.070Z,14.93
2018-05-26T02:10:41.226Z,14.98
2018-05-26T02:11:41.921Z,15.01
2018-05-26T02:12:41.582Z,14.99
2018-05-26T02:13:41.736Z,15.03
2018-05-26T02:14:41.891Z,14.87
2018-05-26T02:15:42.042Z,15.01
2018-05-26T02:16:42.196Z,14.90
2018-05-26T02:17:42.350Z,14.94
2018-05-26T02:18:42.503Z,14.94
2018-05-26T02:19:42.657Z,14.93
2018-05-26T02:20:42.811Z,14.87
2018-05-26T02:21:42.964Z,14.84
2018-05-26T02:22:43.119Z,14.84
2018-05-26T02:23:43.273Z,14.80
2018-05-26T02:24:43.427Z,14.78
2018-05-26T02:25:43.581Z,14.65
2018-05-26T02:26:43.734Z,14.65
2018-05-26T02:27:43.887Z,14.62
2018-05-26T02:28:44.042Z,14.65
2018-05-26T02:29:44.195Z,14.46
2018-05-26T02:30:44.351Z,14.53
2018-05-26T02:31:44.502Z,14.42
2018-05-26T02:32:44.658Z,14.56
2018-05-26T02:33:44.810Z,14.50
2018-05-26T02:34:44.967Z,14.54
2018-05-26T02:35:45.119Z,14.52
2018-05-26T02:36:45.270Z,14.62
2018-05-26T02:37:45.427Z,14.47
2018-05-26T02:38:45.577Z,14.56
2018-05-26T02:39:45.730Z,14.60
2018-05-26T02:40:45.885Z,14.61
2018-05-26T02:41:46.037Z,14.64
2018-05-26T02:42:46.192Z,14.57
2018-05-26T02:43:46.347Z,14.57
2018-05-26T02:44:46.504Z,14.56
2018-05-26T02:45:46.655Z,14.44
2018-05-26T02:46:46.810Z,14.43
2018-05-26T02:47:46.960Z,14.42
2018-05-26T02:48:47.117Z,14.43
2018-05-26T02:49:47.270Z,14.34
2018-05-26T02:50:47.425Z,14.34
2018-05-26T02:51:47.579Z,14.32
2018-05-26T02:52:47.730Z,14.14
2018-05-26T02:53:47.901Z,14.29
2018-05-26T02:54:48.037Z,14.25
2018-05-26T02:55:48.208Z,14.21
2018-05-26T02:56:48.361Z,14.27
2018-05-26T02:57:48.514Z,14.31
2018-05-26T02:58:48.668Z,14.34
2018-05-26T02:59:48.821Z,14.29
2018-05-26T03:00:48.973Z,14.32
2018-05-26T03:01:49.127Z,14.25
2018-05-26T03:02:49.278Z,14.27
2018-05-26T03:03:49.431Z,14.17
2018-05-26T03:04:49.590Z,14.16
2018-05-26T03:05:49.739Z,14.24
2018-05-26T03:06:49.896Z,14.16
2018-05-26T03:07:50.046Z,14.16
2018-05-26T03:08:50.202Z,14.24
2018-05-26T03:09:50.348Z,14.25
2018-05-26T03:10:50.508Z,14.19
2018-05-26T03:11:50.660Z,14.10
2018-05-26T03:12:50.817Z,14.28
2018-05-26T03:13:50.969Z,14.14
2018-05-26T03:14:51.122Z,14.16
2018-05-26T03:15:51.278Z,14.09
2018-05-26T03:16:51.431Z,14.16
2018-05-26T03:17:51.584Z,14.13
2018-05-26T03:18:51.736Z,14.14
2018-05-26T03:19:51.893Z,14.14
2018-05-26T03:20:52.045Z,14.21
2018-05-26T03:21:52.205Z,14.16
2018-05-26T03:22:52.358Z,14.24
2018-05-26T03:23:52.511Z,14.21
2018-05-26T03:24:52.667Z,14.24
2018-05-26T03:25:52.822Z,14.13
2018-05-26T03:26:52.971Z,14.07
2018-05-26T03:27:53.127Z,14.10
2018-05-26T03:28:53.278Z,14.01
2018-05-26T03:29:53.435Z,14.10
2018-05-26T03:30:53.590Z,14.09
2018-05-26T03:31:53.742Z,14.12
2018-05-26T03:32:53.894Z,14.06
2018-05-26T03:33:54.047Z,14.07
2018-05-26T03:34:54.201Z,14.14
2018-05-26T03:35:54.358Z,14.14
2018-05-26T03:36:54.514Z,14.25
2018-05-26T03:37:54.664Z,14.24
2018-05-26T03:38:54.818Z,14.28
2018-05-26T03:39:54.973Z,14.24
2018-05-26T03:40:55.125Z,14.17
2018-05-26T03:41:55.283Z,14.10
2018-05-26T03:42:55.435Z,14.12
2018-05-26T03:43:55.585Z,14.12
2018-05-26T03:44:55.741Z,14.19
2018-05-26T03:45:55.893Z,14.21
2018-05-26T03:46:56.046Z,14.17
2018-05-26T03:47:56.200Z,14.29
2018-05-26T03:48:56.352Z,14.24
2018-05-26T03:49:56.507Z,14.32
2018-05-26T03:50:56.660Z,14.39
2018-05-26T03:51:56.814Z,14.37
2018-05-26T03:52:56.971Z,14.39
2018-05-26T03:53:57.121Z,14.38
2018-05-26T03:54:57.277Z,14.43
2018-05-26T03:55:57.428Z,14.37
2018-05-26T03:56:57.580Z,14.27
2018-05-26T03:57:57.736Z,14.20
2018-05-26T03:58:57.893Z,14.24
2018-05-26T03:59:58.047Z,14.19
2018-05-26T04:00:58.200Z,14.07
2018-05-26T04:01:58.354Z,14.07
2018-05-26T04:02:58.509Z,13.92
2018-05-26T04:03:58.665Z,13.96
2018-05-26T04:04:58.817Z,14.04
2018-05-26T04:05:58.980Z,14.13
2018-05-26T04:06:59.127Z,14.16
2018-05-26T04:07:59.283Z,14.19
2018-05-26T04:08:59.436Z,14.24
2018-05-26T04:09:59.590Z,14.17
2018-05-26T04:10:59.746Z,14.17
2018-05-26T04:11:59.898Z,14.20
2018-05-26T04:13:00.047Z,14.24
2018-05-26T04:14:00.199Z,14.27
2018-05-26T04:15:00.354Z,14.21
2018-05-26T04:16:00.508Z,14.29
2018-05-26T04:17:00.662Z,14.44
2018-05-26T04:18:00.813Z,14.38
2018-05-26T04:19:00.971Z,14.44
2018-05-26T04:20:01.123Z,14.54
2018-05-26T04:21:01.286Z,14.61
2018-05-26T04:22:01.436Z,14.57
2018-05-26T04:23:01.586Z,14.54
2018-05-26T04:24:01.741Z,14.61
2018-05-26T04:25:01.899Z,14.50
2018-05-26T04:26:02.049Z,14.50
2018-05-26T04:27:02.203Z,14.43
2018-05-26T04:28:02.357Z,14.53
2018-05-26T04:29:02.511Z,14.62
2018-05-26T04:30:02.671Z,14.87
2018-05-26T04:31:02.825Z,14.87
2018-05-26T04:32:02.974Z,14.91
2018-05-26T04:33:03.128Z,15.09
2018-05-26T04:34:03.283Z,15.26
2018-05-26T04:35:03.442Z,15.28
2018-05-26T04:36:03.594Z,15.27
2018-05-26T04:37:03.751Z,15.13
2018-05-26T04:38:03.903Z,15.26
2018-05-26T04:39:04.060Z,15.36
2018-05-26T04:40:04.215Z,15.23
2018-05-26T04:41:04.368Z,15.38
2018-05-26T04:42:04.527Z,15.48
2018-05-26T04:43:04.679Z,15.51
2018-05-26T04:44:04.831Z,15.59
2018-05-26T04:45:04.990Z,15.60
2018-05-26T04:46:05.141Z,15.63
2018-05-26T04:47:05.296Z,15.45
2018-05-26T04:48:05.453Z,15.39
2018-05-26T04:49:05.608Z,15.35
2018-05-26T04:50:05.761Z,15.43
2018-05-26T04:51:05.916Z,15.39
2018-05-26T04:52:06.069Z,15.48
2018-05-26T04:53:06.228Z,15.57
2018-05-26T04:54:06.379Z,15.52
2018-05-26T04:55:06.536Z,15.59
2018-05-26T04:56:06.687Z,15.72
2018-05-26T04:57:06.843Z,15.82
2018-05-26T04:58:06.998Z,15.84
2018-05-26T04:59:07.153Z,15.75
2018-05-26T05:00:07.311Z,15.64
2018-05-26T05:01:07.461Z,15.68
2018-05-26T05:02:07.618Z,15.74
2018-05-26T05:03:07.774Z,15.86
2018-05-26T05:04:07.926Z,16.00
2018-05-26T05:05:08.082Z,15.93
2018-05-26T05:06:08.234Z,15.89
2018-05-26T05:07:08.388Z,15.96
2018-05-26T05:08:08.545Z,15.96
2018-05-26T05:09:08.699Z,16.09
2018-05-26T05:10:08.854Z,16.16
2018-05-26T05:11:09.009Z,16.06
2018-05-26T05:12:09.166Z,16.12
2018-05-26T05:13:09.322Z,15.93
2018-05-26T05:14:09.478Z,15.96
2018-05-26T05:15:09.630Z,16.06
2018-05-26T05:16:09.784Z,15.96
2018-05-26T05:17:09.942Z,15.94
2018-05-26T05:18:10.104Z,16.09
2018-05-26T05:19:10.254Z,16.14
2018-05-26T05:20:10.411Z,16.12
2018-05-26T05:21:10.566Z,16.26
2018-05-26T05:22:10.721Z,16.48
2018-05-26T05:23:10.875Z,16.49
2018-05-26T05:24:11.032Z,16.56
2018-05-26T05:25:11.187Z,16.30
2018-05-26T05:26:11.342Z,16.49
2018-05-26T05:27:11.499Z,16.45
2018-05-26T05:28:11.668Z,16.49
2018-05-26T05:29:11.808Z,16.45
2018-05-26T05:30:11.970Z,16.58
2018-05-26T05:31:12.123Z,16.71
2018-05-26T05:32:12.279Z,16.73
2018-05-26T05:33:12.435Z,16.80
2018-05-26T05:34:12.591Z,16.78
2018-05-26T05:35:12.745Z,16.75
2018-05-26T05:36:12.901Z,16.60
2018-05-26T05:37:13.057Z,16.58
2018-05-26T05:38:13.212Z,16.62
2018-05-26T05:39:13.369Z,16.73
2018-05-26T05:40:13.523Z,16.81
2018-05-26T05:41:13.680Z,16.92
2018-05-26T05:42:13.838Z,16.92
2018-05-26T05:43:13.993Z,16.99
2018-05-26T05:44:14.148Z,16.99
2018-05-26T05:45:14.300Z,17.14
2018-05-26T05:46:14.456Z,17.20
2018-05-26T05:47:14.612Z,17.11
2018-05-26T05:48:14.767Z,17.06
2018-05-26T05:49:14.923Z,17.00
2018-05-26T05:50:15.083Z,17.08
2018-05-26T05:51:15.235Z,17.15
2018-05-26T05:52:15.395Z,17.23
2018-05-26T05:53:15.548Z,17.36
2018-05-26T05:54:15.708Z,17.48
2018-05-26T05:55:15.862Z,17.57
2018-05-26T05:56:16.079Z,17.78
2018-05-26T05:57:16.175Z,17.81
2018-05-26T05:58:16.331Z,17.91
2018-05-26T05:59:16.489Z,17.85
2018-05-26T06:00:16.649Z,17.79
2018-05-26T06:01:16.803Z,17.92
2018-05-26T06:02:16.959Z,17.99
2018-05-26T06:03:17.115Z,18.09
2018-05-26T06:04:17.271Z,18.02
2018-05-26T06:05:17.428Z,18.03
2018-05-26T06:06:17.589Z,18.04
2018-05-26T06:07:17.741Z,17.97
2018-05-26T06:08:17.898Z,18.00
2018-05-26T06:09:18.075Z,18.03
2018-05-26T06:10:18.229Z,18.06
2018-05-26T06:11:18.384Z,18.10
2018-05-26T06:12:18.548Z,18.21
2018-05-26T06:13:18.698Z,18.13
2018-05-26T06:14:18.856Z,18.19
2018-05-26T06:15:19.012Z,18.25
2018-05-26T06:16:19.169Z,18.22
2018-05-26T06:17:19.324Z,18.28
2018-05-26T06:18:19.482Z,18.17
2018-05-26T06:19:19.640Z,18.28
2018-05-26T06:20:19.796Z,18.36
2018-05-26T06:21:19.954Z,18.34
2018-05-26T06:22:20.110Z,18.36
2018-05-26T06:23:20.267Z,18.52
2018-05-26T06:24:20.424Z,18.58
2018-05-26T06:25:20.584Z,18.57
2018-05-26T06:26:20.742Z,18.62
2018-05-26T06:27:20.900Z,18.40
2018-05-26T06:28:21.058Z,18.52
2018-05-26T06:29:21.217Z,18.49
2018-05-26T06:30:21.376Z,18.46
2018-05-26T06:31:21.530Z,18.44
2018-05-26T06:32:21.688Z,18.59
2018-05-26T06:33:21.847Z,18.58
2018-05-26T06:34:22.001Z,18.55
2018-05-26T06:35:22.156Z,18.37
2018-05-26T06:36:22.314Z,18.27
2018-05-26T06:37:22.471Z,18.39
2018-05-26T06:38:22.628Z,18.42
2018-05-26T06:39:22.784Z,18.39
2018-05-26T06:40:22.944Z,18.55
2018-05-26T06:41:23.100Z,18.73
2018-05-26T06:42:23.256Z,18.73
2018-05-26T06:43:23.420Z,18.86
2018-05-26T06:44:23.572Z,19.08
2018-05-26T06:45:23.769Z,18.83
2018-05-26T06:46:23.887Z,19.02
2018-05-26T06:47:24.045Z,19.15
2018-05-26T06:48:24.199Z,19.35
2018-05-26T06:49:24.358Z,19.31
2018-05-26T06:50:24.516Z,19.43
2018-05-26T06:51:24.711Z,19.50
2018-05-26T06:52:24.830Z,19.35
2018-05-26T06:53:24.990Z,19.43
2018-05-26T06:54:25.161Z,19.53
2018-05-26T06:55:25.306Z,19.47
2018-05-26T06:56:25.465Z,19.58
2018-05-26T06:57:25.619Z,19.76
2018-05-26T06:58:25.778Z,19.72
2018-05-26T06:59:25.933Z,19.78
2018-05-26T07:00:26.090Z,19.93
2018-05-26T07:01:26.248Z,20.03
2018-05-26T07:02:26.406Z,20.09
2018-05-26T07:03:26.593Z,20.15
2018-05-26T07:04:26.716Z,20.25
2018-05-26T07:05:26.876Z,20.08
2018-05-26T07:06:27.033Z,20.09
2018-05-26T07:07:27.223Z,20.12
2018-05-26T07:08:27.347Z,20.18
2018-05-26T07:09:27.504Z,20.25
2018-05-26T07:10:27.661Z,20.30
2018-05-26T07:11:27.820Z,20.46
2018-05-26T07:12:27.984Z,20.46
2018-05-26T07:13:28.138Z,20.68
2018-05-26T07:14:28.293Z,20.65
2018-05-26T07:15:28.453Z,20.51
2018-05-26T07:16:28.610Z,20.76
2018-05-26T07:17:28.771Z,20.79
2018-05-26T07:18:28.924Z,20.89
2018-05-26T07:19:29.088Z,20.90
2018-05-26T07:20:29.241Z,20.95
2018-05-26T07:21:29.401Z,20.98
2018-05-26T07:22:29.561Z,20.90
2018-05-26T07:23:29.723Z,20.96
2018-05-26T07:24:29.881Z,20.95
2018-05-26T07:25:30.037Z,20.84
2018-05-26T07:26:30.191Z,20.90
2018-05-26T07:27:30.349Z,20.76
2018-05-26T07:28:30.511Z,20.91
2018-05-26T07:29:30.663Z,21.05
2018-05-26T07:30:30.815Z,21.17
2018-05-26T07:31:30.971Z,21.27
2018-05-26T07:32:31.127Z,21.29
2018-05-26T07:33:31.286Z,21.27
2018-05-26T07:34:31.443Z,21.35
2018-05-26T07:35:31.604Z,21.39
2018-05-26T07:36:31.767Z,21.44
2018-05-26T07:37:31.923Z,21.54
2018-05-26T07:38:32.084Z,21.42
2018-05-26T07:39:32.244Z,21.50
2018-05-26T07:40:32.402Z,21.56
2018-05-26T07:41:32.558Z,21.59
2018-05-26T07:42:32.716Z,21.71
2018-05-26T07:43:32.879Z,21.76
2018-05-26T07:44:33.036Z,21.66
2018-05-26T07:45:33.193Z,21.90
2018-05-26T07:46:33.351Z,21.97
2018-05-26T07:47:33.512Z,21.98
2018-05-26T07:48:33.672Z,21.90
2018-05-26T07:49:33.835Z,21.99
2018-05-26T07:50:33.994Z,21.92
2018-05-26T07:51:34.158Z,22.06
2018-05-26T07:52:34.315Z,22.14
2018-05-26T07:53:34.478Z,22.16
2018-05-26T07:54:34.632Z,22.22
2018-05-26T07:55:34.793Z,22.23
2018-05-26T07:56:34.951Z,22.27
2018-05-26T07:57:35.110Z,22.25
2018-05-26T07:58:35.349Z,22.38
2018-05-26T07:59:35.429Z,22.52
2018-05-26T08:00:35.673Z,22.49
2018-05-26T08:01:35.744Z,22.60
2018-05-26T08:02:35.899Z,22.65
2018-05-26T08:03:36.053Z,22.68
2018-05-26T08:04:36.216Z,22.83
2018-05-26T08:05:36.381Z,23.12
2018-05-26T08:06:36.536Z,23.17
2018-05-26T08:07:36.696Z,23.27
2018-05-26T08:08:36.846Z,23.40
2018-05-26T08:09:37.007Z,23.43
2018-05-26T08:10:37.169Z,23.50
2018-05-26T08:11:37.326Z,23.62
2018-05-26T08:12:37.489Z,23.62
2018-05-26T08:13:37.646Z,23.65
2018-05-26T08:14:37.806Z,23.62
2018-05-26T08:15:37.973Z,23.70
2018-05-26T08:16:38.128Z,23.75
2018-05-26T08:17:38.291Z,23.62
2018-05-26T08:18:38.447Z,23.71
2018-05-26T08:19:38.607Z,23.83
2018-05-26T08:20:38.769Z,23.79
2018-05-26T08:21:38.931Z,23.80
2018-05-26T08:22:39.090Z,23.80
2018-05-26T08:23:39.248Z,23.85
2018-05-26T08:24:39.411Z,23.98
2018-05-26T08:25:39.567Z,24.08
2018-05-26T08:26:39.727Z,24.10
2018-05-26T08:27:39.886Z,24.04
2018-05-26T08:28:40.047Z,24.07
2018-05-26T08:29:40.212Z,24.00
2018-05-26T08:30:40.372Z,24.01
2018-05-26T08:31:40.531Z,24.08
2018-05-26T08:32:40.691Z,24.12
2018-05-26T08:33:40.853Z,24.00
2018-05-26T08:34:41.012Z,24.02
2018-05-26T08:35:41.174Z,24.08
2018-05-26T08:36:41.337Z,24.02
2018-05-26T08:37:41.495Z,24.00
2018-05-26T08:38:41.662Z,24.04
2018-05-26T08:39:41.822Z,24.22
2018-05-26T08:40:41.983Z,24.23
2018-05-26T08:41:42.144Z,24.32
2018-05-26T08:42:42.306Z,24.41
2018-05-26T08:43:42.470Z,24.26
2018-05-26T08:44:42.627Z,24.54
2018-05-26T08:45:42.792Z,24.54
2018-05-26T08:46:42.950Z,24.61
2018-05-26T08:47:43.109Z,24.68
2018-05-26T08:48:43.275Z,24.85
2018-05-26T08:49:43.433Z,24.87
2018-05-26T08:50:43.594Z,24.77
2018-05-26T08:51:43.753Z,24.68
2018-05-26T08:52:43.916Z,24.79
2018-05-26T08:53:44.080Z,24.88
2018-05-26T08:54:44.289Z,24.92
2018-05-26T08:55:44.401Z,25.16
2018-05-26T08:56:44.565Z,25.15
2018-05-26T08:57:44.724Z,25.25
2018-05-26T08:58:44.886Z,25.43
2018-05-26T08:59:45.047Z,25.39
2018-05-26T09:00:45.211Z,25.42
2018-05-26T09:01:45.380Z,25.47
2018-05-26T09:02:45.539Z,25.44
2018-05-26T09:03:45.702Z,25.56
2018-05-26T09:04:45.866Z,25.54
2018-05-26T09:05:46.025Z,25.52
2018-05-26T09:06:46.188Z,25.56
2018-05-26T09:07:46.351Z,25.64
2018-05-26T09:08:46.513Z,25.71
2018-05-26T09:09:46.673Z,25.72
2018-05-26T09:10:46.837Z,25.84
2018-05-26T09:11:47.000Z,25.87
2018-05-26T09:12:47.161Z,25.75
2018-05-26T09:13:47.322Z,25.74
2018-05-26T09:14:47.485Z,25.79
2018-05-26T09:15:47.645Z,25.84
2018-05-26T09:16:47.808Z,25.82
2018-05-26T09:17:47.975Z,25.72
2018-05-26T09:18:48.132Z,25.83
2018-05-26T09:19:48.293Z,25.71
2018-05-26T09:20:48.482Z,25.72
2018-05-26T09:21:48.654Z,25.80
2018-05-26T09:22:48.813Z,25.71
2018-05-26T09:23:48.974Z,25.86
2018-05-26T09:24:49.136Z,25.75
2018-05-26T09:25:49.297Z,25.67
2018-05-26T09:26:49.461Z,25.82
2018-05-26T09:27:49.621Z,25.89
2018-05-26T09:28:49.774Z,25.83
2018-05-26T09:29:49.950Z,25.84
2018-05-26T09:30:50.114Z,25.89
2018-05-26T09:31:50.276Z,25.99
2018-05-26T09:32:50.442Z,26.02
2018-05-26T09:33:50.599Z,26.21
2018-05-26T09:34:50.760Z,26.27
2018-05-26T09:35:50.926Z,26.25
2018-05-26T09:36:51.086Z,26.21
2018-05-26T09:37:51.249Z,26.18
2018-05-26T09:38:51.413Z,26.21
2018-05-26T09:39:51.573Z,26.32
2018-05-26T09:40:51.739Z,26.47
2018-05-26T09:41:51.907Z,26.42
2018-05-26T09:42:52.062Z,26.40
2018-05-26T09:43:52.226Z,26.17
2018-05-26T09:44:52.387Z,26.27
2018-05-26T09:45:52.548Z,26.32
2018-05-26T09:46:52.712Z,26.37
2018-05-26T09:47:52.872Z,26.42
2018-05-26T09:48:53.034Z,26.55
2018-05-26T09:49:53.196Z,26.44
2018-05-26T09:50:53.356Z,26.40
2018-05-26T09:51:53.523Z,26.46
2018-05-26T09:52:53.680Z,26.52
2018-05-26T09:53:53.844Z,26.49
2018-05-26T09:54:54.004Z,26.47
2018-05-26T09:55:54.168Z,26.29
2018-05-26T09:56:54.332Z,26.32
2018-05-26T09:57:54.495Z,26.37
2018-05-26T09:58:54.659Z,26.46
2018-05-26T09:59:54.825Z,26.52
2018-05-26T10:00:54.989Z,26.18
2018-05-26T10:01:55.155Z,26.22
2018-05-26T10:02:55.317Z,26.37
2018-05-26T10:03:55.481Z,26.52
2018-05-26T10:04:55.642Z,26.68
2018-05-26T10:05:55.805Z,26.89
2018-05-26T10:06:55.975Z,26.94
2018-05-26T10:07:56.129Z,27.11
2018-05-26T10:08:56.293Z,26.98
2018-05-26T10:09:56.456Z,26.98
2018-05-26T10:10:56.619Z,27.14
2018-05-26T10:11:56.783Z,27.10
2018-05-26T10:12:56.944Z,27.10
2018-05-26T10:13:57.107Z,27.04
2018-05-26T10:14:57.271Z,27.16
2018-05-26T10:15:57.433Z,27.23
2018-05-26T10:16:57.595Z,27.32
2018-05-26T10:17:57.763Z,27.23
2018-05-26T10:18:57.926Z,27.33
2018-05-26T10:19:58.089Z,27.14
2018-05-26T10:20:58.248Z,27.16
2018-05-26T10:21:58.414Z,27.04
2018-05-26T10:22:58.579Z,26.64
2018-05-26T10:23:58.742Z,26.69
2018-05-26T10:24:58.907Z,26.83
2018-05-26T10:25:59.069Z,26.89
2018-05-26T10:26:59.230Z,27.02
2018-05-26T10:27:59.391Z,27.13
2018-05-26T10:28:59.556Z,27.24
2018-05-26T10:29:59.733Z,27.33
2018-05-26T10:30:59.884Z,27.38
2018-05-26T10:32:00.048Z,27.48
2018-05-26T10:33:00.228Z,27.64
2018-05-26T10:34:00.375Z,27.71
2018-05-26T10:35:00.541Z,27.61
2018-05-26T10:36:00.717Z,27.76
2018-05-26T10:37:00.866Z,27.77
2018-05-26T10:38:01.028Z,27.99
2018-05-26T10:39:01.190Z,28.09
2018-05-26T10:40:01.353Z,28.26
2018-05-26T10:41:01.517Z,28.44
2018-05-26T10:42:01.683Z,28.56
2018-05-26T10:43:01.846Z,28.40
2018-05-26T10:44:02.014Z,28.40
2018-05-26T10:45:02.173Z,28.44
2018-05-26T10:46:02.342Z,28.47
2018-05-26T10:47:02.502Z,28.48
2018-05-26T10:48:02.665Z,28.62
2018-05-26T10:49:02.827Z,28.62
2018-05-26T10:50:03.012Z,28.60
2018-05-26T10:51:03.157Z,28.66
2018-05-26T10:52:03.319Z,28.54
2018-05-26T10:53:03.512Z,28.66
2018-05-26T10:54:03.648Z,28.69
2018-05-26T10:55:03.810Z,28.69
2018-05-26T10:56:03.975Z,28.63
2018-05-26T10:57:04.141Z,28.53
2018-05-26T10:58:04.305Z,28.65
2018-05-26T10:59:04.467Z,28.56
2018-05-26T11:00:04.630Z,28.48
2018-05-26T11:01:04.795Z,28.35
2018-05-26T11:02:04.960Z,28.28
2018-05-26T11:03:05.123Z,28.16
2018-05-26T11:04:05.320Z,28.10
2018-05-26T11:05:05.453Z,28.19
2018-05-26T11:06:05.620Z,28.17
2018-05-26T11:07:05.781Z,28.38
2018-05-26T11:08:05.944Z,28.14
2018-05-26T11:09:06.116Z,28.26
2018-05-26T11:10:06.273Z,28.19
2018-05-26T11:11:06.441Z,28.32
2018-05-26T11:12:06.602Z,28.32
2018-05-26T11:13:06.764Z,28.14
2018-05-26T11:14:06.929Z,27.89
2018-05-26T11:15:07.103Z,27.48
2018-05-26T11:16:07.345Z,27.79
2018-05-26T11:17:07.437Z,27.71
2018-05-26T11:18:07.588Z,27.62
2018-05-26T11:19:07.752Z,27.64
2018-05-26T11:20:07.919Z,27.67
2018-05-26T11:21:08.081Z,28.04
2018-05-26T11:22:08.244Z,28.17
2018-05-26T11:23:08.449Z,28.44
2018-05-26T11:24:08.703Z,28.40
2018-05-26T11:25:08.736Z,28.06
2018-05-26T11:26:08.906Z,28.04
2018-05-26T11:27:09.064Z,28.10
2018-05-26T11:28:09.229Z,28.17
2018-05-26T11:29:09.392Z,28.28
2018-05-26T11:30:09.554Z,28.41
2018-05-26T11:31:09.770Z,28.32
2018-05-26T11:32:09.884Z,28.22
2018-05-26T11:33:10.049Z,28.38
2018-05-26T11:34:10.213Z,28.46
2018-05-26T11:35:10.380Z,28.58
2018-05-26T11:36:10.540Z,28.73
2018-05-26T11:37:10.706Z,28.87
2018-05-26T11:38:10.870Z,29.06
2018-05-26T11:39:11.033Z,29.22
2018-05-26T11:40:11.199Z,29.33
2018-05-26T11:41:11.369Z,29.35
2018-05-26T11:42:11.530Z,29.37
2018-05-26T11:43:11.693Z,29.45
2018-05-26T11:44:11.859Z,29.53
2018-05-26T11:45:12.044Z,29.63
2018-05-26T11:46:12.187Z,29.82
2018-05-26T11:47:12.352Z,29.60
2018-05-26T11:48:12.515Z,29.28
2018-05-26T11:49:12.680Z,28.91
2018-05-26T11:50:12.844Z,28.58
2018-05-26T11:51:13.011Z,28.48
2018-05-26T11:52:13.176Z,28.43
2018-05-26T11:53:13.339Z,28.11
2018-05-26T11:54:13.501Z,27.94
2018-05-26T11:55:13.666Z,27.91
2018-05-26T11:56:13.832Z,27.73
2018-05-26T11:57:13.995Z,28.03
2018-05-26T11:58:14.160Z,28.38
2018-05-26T11:59:14.335Z,28.65
2018-05-26T12:00:14.492Z,28.77
2018-05-26T12:01:14.659Z,28.73
2018-05-26T12:02:14.827Z,28.87
2018-05-26T12:03:14.990Z,28.84
2018-05-26T12:04:15.154Z,28.72
2018-05-26T12:05:15.319Z,29.10
2018-05-26T12:06:15.487Z,29.11
2018-05-26T12:07:15.647Z,29.22
2018-05-26T12:08:15.812Z,29.29
2018-05-26T12:09:15.975Z,29.00
2018-05-26T12:10:16.143Z,28.88
2018-05-26T12:11:16.315Z,28.80
2018-05-26T12:12:16.470Z,28.65
2018-05-26T12:13:16.635Z,28.51
2018-05-26T12:14:16.801Z,28.35
2018-05-26T12:15:16.971Z,28.32
2018-05-26T12:16:17.132Z,28.46
2018-05-26T12:17:17.302Z,28.35
2018-05-26T12:18:17.463Z,28.25
2018-05-26T12:19:17.631Z,28.01
2018-05-26T12:20:17.795Z,27.76
2018-05-26T12:21:17.960Z,27.82
2018-05-26T12:22:18.124Z,27.92
2018-05-26T12:23:18.296Z,28.21
2018-05-26T12:24:18.449Z,28.35
2018-05-26T12:25:18.617Z,28.48
2018-05-26T12:26:18.781Z,28.66
2018-05-26T12:27:18.947Z,28.48
2018-05-26T12:28:19.112Z,28.53
2018-05-26T12:29:19.275Z,28.46
2018-05-26T12:30:19.439Z,28.35
2018-05-26T12:31:19.606Z,28.31
2018-05-26T12:32:19.770Z,28.73
2018-05-26T12:33:19.934Z,29.29
2018-05-26T12:34:20.104Z,28.91
2018-05-26T12:35:20.264Z,29.23
2018-05-26T12:36:20.432Z,29.37
2018-05-26T12:37:20.595Z,29.49
2018-05-26T12:38:20.763Z,29.68
2018-05-26T12:39:20.925Z,30.00
2018-05-26T12:40:21.094Z,30.14
2018-05-26T12:41:21.257Z,30.16
2018-05-26T12:42:21.420Z,30.08
2018-05-26T12:43:21.588Z,30.31
2018-05-26T12:44:21.755Z,30.43
2018-05-26T12:45:21.963Z,30.46
2018-05-26T12:46:22.082Z,30.45
2018-05-26T12:47:22.245Z,30.23
2018-05-26T12:48:22.411Z,30.31
2018-05-26T12:49:22.575Z,30.00
2018-05-26T12:50:22.739Z,29.81
2018-05-26T12:51:22.906Z,29.52
2018-05-26T12:52:23.070Z,29.29
2018-05-26T12:53:23.238Z,29.19
2018-05-26T12:54:23.401Z,29.18